Apalachia Observed Data For Previous 48 Hours

Caption
Day and Hour Reservoir Elevation (behind dam)* Tailwater Elevation (below dam)* Average Hourly Discharge*
8/20/2018 2 AM EDT 1,277.46 840.46 4,043
8/20/2018 3 AM EDT 1,277.43 840.45 4,037
8/20/2018 4 AM EDT 1,276.97 840.48 4,022
8/20/2018 5 AM EDT 1,276.97 840.48 4,006
8/20/2018 6 AM EDT 1,276.22 840.49 3,986
8/20/2018 7 AM EDT 1,275.98 840.48 3,955
8/20/2018 8 AM EDT 1,275.74 840.50 3,942
8/20/2018 9 AM EDT 1,275.38 840.45 3,921
8/20/2018 10 AM EDT 1,275.02 840.44 3,903
8/20/2018 11 AM EDT 1,275.06 840.43 3,891
8/20/2018 12 PM EDT 1,275.06 840.40 3,893
8/20/2018 1 PM EDT 1,275.20 840.40 3,895
8/20/2018 2 PM EDT 1,275.56 840.40 3,913
8/20/2018 3 PM EDT 1,276.00 840.38 3,934
8/20/2018 4 PM EDT 1,276.27 840.41 3,959
8/20/2018 5 PM EDT 1,276.27 840.36 3,965
8/20/2018 6 PM EDT 1,276.71 840.39 3,981
8/20/2018 7 PM EDT 1,277.05 840.40 4,001
8/20/2018 8 PM EDT 1,277.34 840.40 4,022
8/20/2018 9 PM EDT 1,277.82 840.45 4,044
8/20/2018 10 PM EDT 1,277.91 840.46 4,058
8/20/2018 11 PM EDT 1,277.92 840.43 4,061
8/21/2018 12 AM EDT 1,277.87 840.48 4,058
8/21/2018 1 AM EDT 1,277.97 840.50 4,061
8/21/2018 2 AM EDT 1,277.43 840.45 4,048
8/21/2018 3 AM EDT 1,277.20 840.50 4,028
8/21/2018 4 AM EDT 1,276.96 840.50 4,011
8/21/2018 5 AM EDT 1,276.48 840.47 3,994
8/21/2018 6 AM EDT 1,276.22 840.50 3,970
8/21/2018 7 AM EDT 1,275.98 840.45 3,957
8/21/2018 8 AM EDT 1,275.75 840.48 3,939
8/21/2018 9 AM EDT 1,275.54 840.47 3,929
8/21/2018 10 AM EDT 1,275.55 840.46 3,922
8/21/2018 11 AM EDT 1,275.51 840.44 3,918
8/21/2018 12 PM EDT 1,275.52 840.43 3,918
8/21/2018 1 PM EDT 1,275.48 840.39 3,918
8/21/2018 2 PM EDT 1,275.50 840.41 3,913
8/21/2018 3 PM EDT 1,275.49 840.40 3,918
8/21/2018 4 PM EDT 1,275.83 840.39 3,929
8/21/2018 5 PM EDT 1,276.19 840.39 3,947
8/21/2018 6 PM EDT 1,276.59 840.38 3,971
8/21/2018 7 PM EDT 1,276.87 840.39 3,990
8/21/2018 8 PM EDT 1,276.89 840.38 3,999
8/21/2018 9 PM EDT 1,276.84 840.41 3,995
8/21/2018 10 PM EDT 1,276.90 840.45 4,000
8/21/2018 11 PM EDT 1,276.94 840.45 4,004
8/22/2018 12 AM EDT 1,276.98 840.47 4,006
8/22/2018 1 AM EDT 1,276.98 840.45 4,004
8/22/2018 2 AM EDT 1,277.01 840.43 4,006
8/22/2018 3 AM EDT 1,276.54 840.51 3,993

Elevations are in feet above sea level. Discharges are in cubic feet per second and are reported at the end of the hour.